createdAt,value
2023-02-09T00:02:36.793Z,14.23
2023-02-09T00:08:40.223Z,14.53
2023-02-09T00:14:43.663Z,14.80
2023-02-09T00:20:56.759Z,15.83
2023-02-09T00:27:00.171Z,14.73
2023-02-09T00:33:03.553Z,15.73
2023-02-09T00:39:08.344Z,14.53
2023-02-09T00:45:11.834Z,13.90
2023-02-09T00:51:15.248Z,14.77
2023-02-09T00:57:20.064Z,13.93
2023-02-09T01:03:23.968Z,15.10
2023-02-09T01:09:27.362Z,15.60
2023-02-09T01:15:32.496Z,14.03
2023-02-09T01:21:35.966Z,15.47
2023-02-09T01:27:39.364Z,15.10
2023-02-09T01:33:44.095Z,13.93
2023-02-09T01:39:47.998Z,15.43
2023-02-09T01:45:54.682Z,14.73
2023-02-09T01:52:01.273Z,17.53
2023-02-09T01:58:07.991Z,18.43
2023-02-09T02:04:11.713Z,17.37
2023-02-09T02:10:17.141Z,17.73
2023-02-09T02:16:26.742Z,16.83
2023-02-09T02:22:47.872Z,17.60
2023-02-09T02:29:03.233Z,15.60
2023-02-09T02:35:12.801Z,16.00
2023-02-09T02:41:17.731Z,15.13
2023-02-09T02:47:22.264Z,15.17
2023-02-09T02:53:29.466Z,14.20
2023-02-09T02:59:34.845Z,14.03
2023-02-09T03:05:38.828Z,14.10
2023-02-09T03:11:45.651Z,13.63
2023-02-09T03:17:50.095Z,13.53
2023-02-09T03:23:56.247Z,13.33
2023-02-09T03:30:04.356Z,12.87
2023-02-09T03:36:10.382Z,13.77
2023-02-09T03:42:13.878Z,13.10
2023-02-09T03:48:18.644Z,14.13
2023-02-09T03:54:22.046Z,11.90
2023-02-09T04:00:25.588Z,13.57
2023-02-09T04:06:31.203Z,12.40
2023-02-09T04:12:34.677Z,12.07
2023-02-09T04:18:38.069Z,11.70
2023-02-09T04:24:42.881Z,10.50
2023-02-09T04:30:46.607Z,9.23
2023-02-09T04:36:50.125Z,8.47
2023-02-09T04:42:54.862Z,8.60
2023-02-09T04:48:58.284Z,8.67
2023-02-09T04:55:01.877Z,9.57
2023-02-09T05:01:07.393Z,14.00
2023-02-09T05:07:10.831Z,10.07
2023-02-09T05:13:14.225Z,8.97
2023-02-09T05:19:19.092Z,8.83
2023-02-09T05:25:22.542Z,8.43
2023-02-09T05:31:26.065Z,9.70
2023-02-09T05:37:30.857Z,8.90
2023-02-09T05:43:34.554Z,8.73
2023-02-09T05:49:38.022Z,9.07
2023-02-09T05:55:43.520Z,9.40
2023-02-09T06:01:46.923Z,8.43
2023-02-09T06:07:50.453Z,9.27
2023-02-09T06:13:55.187Z,9.30
2023-02-09T06:19:58.605Z,9.70
2023-02-09T06:26:02.035Z,8.17
2023-02-09T06:32:07.098Z,8.93
2023-02-09T06:38:10.534Z,8.50
2023-02-09T06:44:13.930Z,8.50
2023-02-09T06:50:19.015Z,8.60
2023-02-09T06:56:22.510Z,7.70
2023-02-09T07:02:26.316Z,7.97
2023-02-09T07:08:31.454Z,8.47
2023-02-09T07:14:34.904Z,8.17
2023-02-09T07:20:38.329Z,7.90
2023-02-09T07:26:43.081Z,8.33
2023-02-09T07:32:46.504Z,8.63
2023-02-09T07:38:50.087Z,9.00
2023-02-09T07:44:55.338Z,8.73
2023-02-09T07:50:58.919Z,11.47
2023-02-09T07:57:02.319Z,12.17
2023-02-09T08:03:07.490Z,10.87
2023-02-09T08:09:11.244Z,10.63
2023-02-09T08:15:15.579Z,9.63
2023-02-09T08:21:20.747Z,9.63
2023-02-09T08:27:24.511Z,9.40
2023-02-09T08:33:27.984Z,12.03
2023-02-09T08:39:32.963Z,10.70
2023-02-09T08:45:37.299Z,10.10
2023-02-09T08:51:40.806Z,13.35
2023-02-09T08:57:45.563Z,10.65
2023-02-09T09:03:49.497Z,10.55
2023-02-09T09:09:52.986Z,10.77
2023-02-09T09:15:57.893Z,11.37
2023-02-09T09:22:03.535Z,12.00
2023-02-09T09:28:07.078Z,13.65
2023-02-09T09:34:11.883Z,24.83
2023-02-09T09:40:19.365Z,12.75
2023-02-09T09:46:24.043Z,13.30
2023-02-09T09:52:32.224Z,13.38
2023-02-09T09:58:37.056Z,12.57
2023-02-09T10:04:40.495Z,13.40
2023-02-09T10:10:47.946Z,12.93
2023-02-09T10:16:51.512Z,13.40
2023-02-09T10:22:55.201Z,14.10
2023-02-09T10:29:01.292Z,14.57
2023-02-09T10:35:06.601Z,14.43
2023-02-09T10:41:10.945Z,14.85
2023-02-09T10:47:29.797Z,15.82
2023-02-09T10:53:34.220Z,14.57
2023-02-09T10:59:37.689Z,15.10
2023-02-09T11:05:42.456Z,14.77
2023-02-09T11:11:46.706Z,15.18
2023-02-09T11:17:51.990Z,15.68
2023-02-09T11:23:57.987Z,16.00
2023-02-09T11:30:08.852Z,14.45
2023-02-09T11:36:24.323Z,16.65
2023-02-09T11:42:46.582Z,15.95
2023-02-09T11:48:53.968Z,16.20
2023-02-09T11:55:00.806Z,17.20
2023-02-09T12:01:15.527Z,17.05
2023-02-09T12:07:22.709Z,16.70
2023-02-09T12:13:32.115Z,16.80
2023-02-09T12:19:38.206Z,16.90
2023-02-09T12:26:02.331Z,17.10
2023-02-09T12:32:25.923Z,17.08
2023-02-09T12:38:51.606Z,16.45
2023-02-09T12:44:58.807Z,17.02
2023-02-09T12:51:02.312Z,17.23
2023-02-09T12:57:26.897Z,17.90
2023-02-09T13:03:32.379Z,17.17
2023-02-09T13:09:38.450Z,17.73
2023-02-09T13:15:47.645Z,18.20
2023-02-09T13:21:58.771Z,17.50
2023-02-09T13:28:09.644Z,17.85
2023-02-09T13:34:21.752Z,19.30
2023-02-09T13:40:27.730Z,18.27
2023-02-09T13:46:34.516Z,17.50
2023-02-09T13:52:40.215Z,19.15
2023-02-09T13:58:44.985Z,17.77
2023-02-09T14:04:51.034Z,20.10
2023-02-09T14:10:56.744Z,18.75
2023-02-09T14:17:24.821Z,18.20
2023-02-09T14:23:32.924Z,16.55
2023-02-09T14:29:37.202Z,16.05
2023-02-09T14:35:43.289Z,15.18
2023-02-09T14:41:57.161Z,16.70
2023-02-09T14:48:00.610Z,16.75
2023-02-09T14:54:19.668Z,16.60
2023-02-09T15:00:24.148Z,15.38
2023-02-09T15:06:33.058Z,16.05
2023-02-09T15:12:37.873Z,16.63
2023-02-09T15:18:41.744Z,15.98
2023-02-09T15:24:45.256Z,16.00
2023-02-09T15:30:50.038Z,16.75
2023-02-09T15:36:53.488Z,16.92
2023-02-09T15:43:14.788Z,16.98
2023-02-09T15:49:19.872Z,15.60
2023-02-09T15:55:24.136Z,15.30
2023-02-09T16:01:27.854Z,16.60
2023-02-09T16:07:32.809Z,16.35
2023-02-09T16:13:36.273Z,19.45
2023-02-09T16:19:40.804Z,15.75
2023-02-09T16:25:47.809Z,15.63
2023-02-09T16:31:51.339Z,15.32
2023-02-09T16:37:56.258Z,15.55
2023-02-09T16:44:01.795Z,16.50
2023-02-09T16:50:06.955Z,16.10
2023-02-09T16:56:11.572Z,18.42
2023-02-09T17:02:27.808Z,16.48
2023-02-09T17:08:32.729Z,27.75
2023-02-09T17:14:36.126Z,17.33
2023-02-09T17:20:43.848Z,17.42
2023-02-09T17:26:47.360Z,19.40
2023-02-09T17:32:55.848Z,19.90
2023-02-09T17:39:01.456Z,22.38
2023-02-09T17:45:04.962Z,19.45
2023-02-09T17:51:09.667Z,17.90
2023-02-09T17:57:16.297Z,22.35
2023-02-09T18:03:20.626Z,22.95
2023-02-09T18:09:23.994Z,21.63
2023-02-09T18:15:30.127Z,19.42
2023-02-09T18:21:33.772Z,18.15
2023-02-09T18:27:37.185Z,18.25
2023-02-09T18:33:41.929Z,19.17
2023-02-09T18:39:47.774Z,23.00
2023-02-09T18:45:51.211Z,32.08
2023-02-09T18:51:57.295Z,34.35
2023-02-09T18:58:02.759Z,20.90
2023-02-09T19:04:06.504Z,19.80
2023-02-09T19:10:12.154Z,20.83
2023-02-09T19:16:15.599Z,20.30
2023-02-09T19:22:20.038Z,18.30
2023-02-09T19:28:24.972Z,19.85
2023-02-09T19:34:32.162Z,20.30
2023-02-09T19:40:41.333Z,20.67
2023-02-09T19:46:46.156Z,20.42
2023-02-09T19:52:50.428Z,20.20
2023-02-09T19:58:53.874Z,19.85
2023-02-09T20:04:58.684Z,19.33
2023-02-09T20:11:02.102Z,20.13
2023-02-09T20:17:05.551Z,20.80
2023-02-09T20:23:10.503Z,21.75
2023-02-09T20:29:14.122Z,21.70
2023-02-09T20:35:17.817Z,20.77
2023-02-09T20:41:22.652Z,22.38
2023-02-09T20:47:27.107Z,22.45
2023-02-09T20:53:30.565Z,23.15
2023-02-09T20:59:35.628Z,21.98
2023-02-09T21:05:39.181Z,26.02
2023-02-09T21:11:42.748Z,24.08
2023-02-09T21:17:49.062Z,21.38
2023-02-09T21:23:52.844Z,23.38
2023-02-09T21:29:57.207Z,22.98
2023-02-09T21:36:03.196Z,22.88
2023-02-09T21:42:24.701Z,23.17
2023-02-09T21:48:28.699Z,23.15
2023-02-09T21:54:34.043Z,26.45
2023-02-09T22:00:37.447Z,23.75
2023-02-09T22:06:41.692Z,25.40
2023-02-09T22:12:46.706Z,28.50
2023-02-09T22:18:50.115Z,18.38
2023-02-09T22:24:53.887Z,19.80
2023-02-09T22:30:58.878Z,17.50
2023-02-09T22:37:02.461Z,18.27
2023-02-09T22:43:06.015Z,17.70
2023-02-09T22:49:11.311Z,16.38
2023-02-09T22:55:14.732Z,19.27
2023-02-09T23:01:18.735Z,23.17
2023-02-09T23:07:23.564Z,24.52
2023-02-09T23:13:26.935Z,25.10
2023-02-09T23:19:30.298Z,24.05
2023-02-09T23:25:35.047Z,24.10
2023-02-09T23:31:38.706Z,23.42
2023-02-09T23:37:42.103Z,26.17
2023-02-09T23:43:47.682Z,25.10
2023-02-09T23:49:51.097Z,25.20
2023-02-09T23:56:01.237Z,21.55
